createdAt,value
2022-10-25T00:01:44.930Z,100.00
2022-10-25T00:04:14.442Z,100.00
2022-10-25T00:06:42.712Z,100.00
2022-10-25T00:09:11.512Z,100.00
2022-10-25T00:11:39.426Z,100.00
2022-10-25T00:14:08.630Z,100.00
2022-10-25T00:16:38.542Z,100.00
2022-10-25T00:19:07.619Z,100.00
2022-10-25T00:21:36.946Z,100.00
2022-10-25T00:24:05.474Z,100.00
2022-10-25T00:26:36.269Z,100.00
2022-10-25T00:29:04.528Z,100.00
2022-10-25T00:31:32.519Z,100.00
2022-10-25T00:34:00.507Z,100.00
2022-10-25T00:36:28.885Z,100.00
2022-10-25T00:38:59.664Z,100.00
2022-10-25T00:41:31.495Z,100.00
2022-10-25T00:44:33.031Z,100.00
2022-10-25T00:47:01.154Z,100.00
2022-10-25T00:49:29.241Z,100.00
2022-10-25T00:52:03.750Z,100.00
2022-10-25T00:54:37.829Z,100.00
2022-10-25T00:57:16.091Z,100.00
2022-10-25T00:59:45.032Z,100.00
2022-10-25T01:02:13.481Z,100.00
2022-10-25T01:04:42.188Z,100.00
2022-10-25T01:07:12.870Z,100.00
2022-10-25T01:09:45.168Z,100.00
2022-10-25T01:12:16.077Z,100.00
2022-10-25T01:14:48.433Z,100.00
2022-10-25T01:17:25.308Z,100.00
2022-10-25T01:20:27.289Z,100.00
2022-10-25T01:23:01.906Z,100.00
2022-10-25T01:26:00.230Z,100.00
2022-10-25T01:28:39.519Z,100.00
2022-10-25T01:31:17.776Z,100.00
2022-10-25T01:33:57.432Z,100.00
2022-10-25T01:36:35.204Z,100.00
2022-10-25T01:39:11.701Z,100.00
2022-10-25T01:41:50.846Z,100.00
2022-10-25T01:44:32.238Z,100.00
2022-10-25T01:47:04.414Z,100.00
2022-10-25T01:49:43.002Z,100.00
2022-10-25T01:52:11.437Z,100.00
2022-10-25T01:54:39.595Z,100.00
2022-10-25T01:57:35.138Z,100.00
2022-10-25T02:00:10.594Z,100.00
2022-10-25T02:02:59.188Z,100.00
2022-10-25T02:05:31.826Z,100.00
2022-10-25T02:08:06.229Z,100.00
2022-10-25T02:10:41.733Z,100.00
2022-10-25T02:13:17.956Z,100.00
2022-10-25T02:15:55.546Z,100.00
2022-10-25T02:21:04.002Z,100.00
2022-10-25T02:23:35.633Z,100.00
2022-10-25T02:26:06.493Z,100.00
2022-10-25T02:28:39.440Z,100.00
2022-10-25T02:31:09.684Z,100.00
2022-10-25T02:33:41.512Z,100.00
2022-10-25T02:36:14.421Z,100.00
2022-10-25T02:38:43.284Z,100.00
2022-10-25T02:41:11.720Z,100.00
2022-10-25T02:43:39.684Z,100.00
2022-10-25T02:46:09.180Z,100.00
2022-10-25T02:48:37.495Z,100.00
2022-10-25T02:51:08.150Z,100.00
2022-10-25T02:53:36.757Z,100.00
2022-10-25T02:56:09.269Z,100.00
2022-10-25T02:58:39.836Z,100.00
2022-10-25T03:01:08.991Z,100.00
2022-10-25T03:03:37.506Z,100.00
2022-10-25T03:06:07.852Z,100.00
2022-10-25T03:08:36.342Z,100.00
2022-10-25T03:11:05.385Z,100.00
2022-10-25T03:13:36.426Z,100.00
2022-10-25T03:16:05.111Z,100.00
2022-10-25T03:18:33.938Z,100.00
2022-10-25T03:21:03.747Z,100.00
2022-10-25T03:23:33.886Z,100.00
2022-10-25T03:26:02.622Z,100.00
2022-10-25T03:28:32.900Z,100.00
2022-10-25T03:31:03.115Z,100.00
2022-10-25T03:36:01.765Z,100.00
2022-10-25T03:38:33.634Z,100.00
2022-10-25T03:41:01.961Z,100.00
2022-10-25T03:43:30.123Z,100.00
2022-10-25T03:45:58.723Z,100.00
2022-10-25T03:48:29.045Z,100.00
2022-10-25T03:50:59.232Z,100.00
2022-10-25T03:53:27.170Z,100.00
2022-10-25T03:55:59.406Z,100.00
2022-10-25T03:58:27.747Z,100.00
2022-10-25T04:00:56.121Z,100.00
2022-10-25T04:03:24.122Z,100.00
2022-10-25T04:05:54.449Z,100.00
2022-10-25T04:08:22.398Z,100.00
2022-10-25T04:10:52.581Z,100.00
2022-10-25T04:13:21.897Z,100.00
2022-10-25T04:15:50.143Z,100.00
2022-10-25T04:19:43.194Z,100.00
2022-10-25T04:22:12.804Z,100.00
2022-10-25T04:24:40.938Z,100.00
2022-10-25T04:27:11.566Z,100.00
2022-10-25T04:29:40.037Z,100.00
2022-10-25T04:32:08.074Z,100.00
2022-10-25T04:34:36.283Z,100.00
2022-10-25T04:37:05.834Z,100.00
2022-10-25T04:39:35.154Z,100.00
2022-10-25T04:42:05.818Z,100.00
2022-10-25T04:44:36.107Z,100.00
2022-10-25T04:47:06.661Z,100.00
2022-10-25T04:49:34.731Z,100.00
2022-10-25T04:52:03.079Z,100.00
2022-10-25T04:54:32.351Z,100.00
2022-10-25T04:57:00.492Z,100.00
2022-10-25T04:59:28.727Z,100.00
2022-10-25T05:01:56.625Z,100.00
2022-10-25T05:04:27.194Z,100.00
2022-10-25T05:06:57.649Z,100.00
2022-10-25T05:09:25.863Z,100.00
2022-10-25T05:11:55.180Z,100.00
2022-10-25T05:14:23.374Z,100.00
2022-10-25T05:16:51.320Z,100.00
2022-10-25T05:19:19.413Z,100.00
2022-10-25T05:21:47.908Z,100.00
2022-10-25T05:24:15.819Z,100.00
2022-10-25T05:26:46.020Z,100.00
2022-10-25T05:29:15.631Z,100.00
2022-10-25T05:31:43.542Z,100.00
2022-10-25T05:34:14.166Z,100.00
2022-10-25T05:36:42.319Z,100.00
2022-10-25T05:39:13.115Z,100.00
2022-10-25T05:41:41.538Z,100.00
2022-10-25T05:44:09.603Z,100.00
2022-10-25T05:46:38.989Z,100.00
2022-10-25T05:49:07.077Z,100.00
2022-10-25T05:51:36.542Z,100.00
2022-10-25T05:54:10.555Z,100.00
2022-10-25T05:56:39.614Z,100.00
2022-10-25T05:59:12.299Z,100.00
2022-10-25T06:01:43.612Z,100.00
2022-10-25T06:04:12.849Z,100.00
2022-10-25T06:06:41.869Z,100.00
2022-10-25T06:09:10.744Z,100.00
2022-10-25T06:11:39.557Z,100.00
2022-10-25T06:14:08.466Z,100.00
2022-10-25T06:16:39.583Z,100.00
2022-10-25T06:19:09.352Z,100.00
2022-10-25T06:21:37.778Z,100.00
2022-10-25T06:24:06.966Z,100.00
2022-10-25T06:26:35.156Z,100.00
2022-10-25T06:29:05.127Z,100.00
2022-10-25T06:31:34.641Z,100.00
2022-10-25T06:34:03.811Z,100.00
2022-10-25T06:36:35.860Z,100.00
2022-10-25T06:39:05.963Z,100.00
2022-10-25T06:41:37.604Z,100.00
2022-10-25T06:44:08.421Z,100.00
2022-10-25T06:46:58.265Z,100.00
2022-10-25T06:49:26.132Z,100.00
2022-10-25T06:51:55.812Z,100.00
2022-10-25T06:54:25.429Z,100.00
2022-10-25T06:56:53.500Z,100.00
2022-10-25T06:59:21.919Z,100.00
2022-10-25T07:01:50.024Z,100.00
2022-10-25T07:04:18.421Z,100.00
2022-10-25T07:06:48.846Z,100.00
2022-10-25T07:09:20.928Z,100.00
2022-10-25T07:11:48.929Z,100.00
2022-10-25T07:14:17.202Z,100.00
2022-10-25T07:16:45.351Z,100.00
2022-10-25T07:19:15.755Z,100.00
2022-10-25T07:21:46.113Z,100.00
2022-10-25T07:24:14.471Z,100.00
2022-10-25T07:26:44.069Z,100.00
2022-10-25T07:29:12.321Z,100.00
2022-10-25T07:31:43.108Z,100.00
2022-10-25T07:34:15.754Z,100.00
2022-10-25T07:36:45.918Z,100.00
2022-10-25T07:39:16.183Z,100.00
2022-10-25T07:41:45.564Z,100.00
2022-10-25T07:44:17.533Z,100.00
2022-10-25T07:46:50.261Z,100.00
2022-10-25T07:49:20.194Z,100.00
2022-10-25T07:51:48.185Z,100.00
2022-10-25T07:54:20.738Z,100.00
2022-10-25T07:56:50.049Z,100.00
2022-10-25T07:59:18.181Z,100.00
2022-10-25T08:01:46.170Z,100.00
2022-10-25T08:04:14.176Z,100.00
2022-10-25T08:06:42.097Z,100.00
2022-10-25T08:09:20.374Z,93.66
2022-10-25T08:11:59.550Z,85.15
2022-10-25T08:14:29.558Z,81.38
2022-10-25T08:16:59.808Z,78.04
2022-10-25T08:19:30.824Z,76.30
2022-10-25T08:21:59.017Z,71.19
2022-10-25T08:24:29.447Z,70.98
2022-10-25T08:26:58.896Z,72.59
2022-10-25T08:29:27.411Z,73.65
2022-10-25T08:31:55.488Z,74.62
2022-10-25T08:34:23.629Z,78.13
2022-10-25T08:36:51.687Z,76.75
2022-10-25T08:39:19.806Z,77.89
2022-10-25T08:41:53.764Z,81.89
2022-10-25T08:44:34.049Z,83.06
2022-10-25T08:47:05.776Z,87.86
2022-10-25T08:49:43.272Z,89.69
2022-10-25T08:52:19.689Z,93.12
2022-10-25T08:54:51.209Z,93.30
2022-10-25T08:57:24.383Z,94.26
2022-10-25T08:59:55.525Z,89.71
2022-10-25T09:02:33.726Z,90.76
2022-10-25T09:05:02.111Z,88.88
2022-10-25T09:07:45.043Z,82.64
2022-10-25T09:10:23.538Z,79.64
2022-10-25T09:13:02.318Z,77.48
2022-10-25T09:15:47.141Z,75.72
2022-10-25T09:20:49.398Z,82.15
2022-10-25T09:23:25.740Z,85.19
2022-10-25T09:26:03.930Z,87.47
2022-10-25T09:28:50.171Z,90.99
2022-10-25T09:31:23.303Z,92.55
2022-10-25T09:33:55.188Z,90.01
2022-10-25T09:36:30.482Z,83.33
2022-10-25T09:39:04.026Z,81.27
2022-10-25T09:41:39.907Z,76.47
2022-10-25T09:44:17.145Z,73.10
2022-10-25T09:46:53.276Z,69.97
2022-10-25T09:49:27.912Z,69.80
2022-10-25T09:52:03.738Z,65.86
2022-10-25T09:54:36.369Z,66.32
2022-10-25T09:57:04.822Z,73.21
2022-10-25T09:59:32.795Z,79.60
2022-10-25T10:02:03.395Z,83.66
2022-10-25T10:04:37.364Z,87.01
2022-10-25T10:07:13.360Z,88.79
2022-10-25T10:09:45.938Z,89.97
2022-10-25T10:12:21.695Z,90.35
2022-10-25T10:14:57.182Z,91.07
2022-10-25T10:17:27.048Z,89.69
2022-10-25T10:20:10.554Z,90.83
2022-10-25T10:22:46.522Z,91.81
2022-10-25T10:25:20.966Z,92.95
2022-10-25T10:27:55.042Z,94.49
2022-10-25T10:30:26.791Z,95.18
2022-10-25T10:32:57.790Z,96.22
2022-10-25T10:35:33.652Z,97.09
2022-10-25T10:38:26.614Z,98.96
2022-10-25T10:41:15.034Z,99.28
2022-10-25T10:43:43.126Z,99.48
2022-10-25T10:46:15.274Z,100.00
2022-10-25T10:48:46.270Z,100.00
2022-10-25T10:51:42.969Z,100.00
2022-10-25T10:54:26.792Z,99.94
2022-10-25T10:57:00.459Z,96.56
2022-10-25T10:59:40.034Z,98.98
2022-10-25T11:02:24.582Z,95.78
2022-10-25T11:04:56.898Z,95.53
2022-10-25T11:07:32.454Z,95.17
2022-10-25T11:10:27.813Z,94.87
2022-10-25T11:13:11.123Z,96.69
2022-10-25T11:16:00.459Z,95.20
2022-10-25T11:18:36.339Z,96.38
2022-10-25T11:21:14.621Z,98.63
2022-10-25T11:23:58.321Z,94.66
2022-10-25T11:26:36.157Z,88.72
2022-10-25T11:29:10.912Z,85.81
2022-10-25T11:31:54.170Z,85.39
2022-10-25T11:34:30.945Z,83.19
2022-10-25T11:37:07.996Z,86.78
2022-10-25T11:39:51.958Z,88.00
2022-10-25T11:42:36.841Z,86.69
2022-10-25T11:45:22.903Z,85.52
2022-10-25T11:48:03.075Z,84.35
2022-10-25T11:50:41.711Z,83.98
2022-10-25T11:53:21.690Z,85.62
2022-10-25T11:55:54.311Z,84.45
2022-10-25T11:58:39.488Z,84.29
2022-10-25T12:01:18.642Z,84.20
2022-10-25T12:04:01.027Z,83.17
2022-10-25T12:06:38.327Z,84.41
2022-10-25T12:09:22.286Z,84.25
2022-10-25T12:12:13.797Z,82.94
2022-10-25T12:14:50.272Z,81.90
2022-10-25T12:17:24.573Z,83.73
2022-10-25T12:19:55.267Z,83.42
2022-10-25T12:22:27.599Z,84.91
2022-10-25T12:25:00.535Z,83.17
2022-10-25T12:27:30.473Z,84.15
2022-10-25T12:30:04.947Z,84.70
2022-10-25T12:32:37.472Z,85.35
2022-10-25T12:35:19.010Z,85.91
2022-10-25T12:37:55.008Z,85.74
2022-10-25T12:40:27.676Z,85.40
2022-10-25T12:42:58.497Z,85.18
2022-10-25T12:45:48.351Z,83.85
2022-10-25T12:48:32.734Z,84.17
2022-10-25T12:51:20.521Z,83.40
2022-10-25T12:54:05.867Z,83.44
2022-10-25T12:56:55.386Z,85.33
2022-10-25T12:59:41.914Z,83.92
2022-10-25T13:02:55.981Z,83.13
2022-10-25T13:05:50.785Z,81.78
2022-10-25T13:08:21.232Z,81.56
2022-10-25T13:10:59.148Z,82.21
2022-10-25T13:13:33.663Z,81.31
2022-10-25T13:16:04.637Z,80.26
2022-10-25T13:18:46.109Z,78.75
2022-10-25T13:21:16.357Z,77.80
2022-10-25T13:24:03.271Z,75.90
2022-10-25T13:26:50.355Z,75.90
2022-10-25T13:29:58.782Z,76.40
2022-10-25T13:32:30.373Z,73.12
2022-10-25T13:35:00.094Z,73.11
2022-10-25T13:37:41.913Z,72.15
2022-10-25T13:40:21.937Z,71.71
2022-10-25T13:43:00.307Z,70.74
2022-10-25T13:45:35.812Z,71.32
2022-10-25T13:48:18.347Z,71.11
2022-10-25T13:50:52.773Z,72.42
2022-10-25T13:53:26.194Z,74.11
2022-10-25T13:56:00.744Z,75.21
2022-10-25T13:58:43.763Z,74.86
2022-10-25T14:01:53.663Z,76.02
2022-10-25T14:04:24.371Z,78.25
2022-10-25T14:06:54.541Z,77.54
2022-10-25T14:09:33.347Z,75.64
2022-10-25T14:12:13.790Z,76.78
2022-10-25T14:14:57.880Z,74.74
2022-10-25T14:17:33.719Z,75.36
2022-10-25T14:21:47.847Z,76.13
2022-10-25T14:24:18.074Z,76.70
2022-10-25T14:26:54.827Z,77.56
2022-10-25T14:29:25.561Z,78.59
2022-10-25T14:31:55.028Z,78.45
2022-10-25T14:34:24.769Z,79.89
2022-10-25T14:36:55.995Z,80.64
2022-10-25T14:39:26.523Z,81.33
2022-10-25T14:41:56.254Z,82.57
2022-10-25T14:44:27.956Z,81.71
2022-10-25T14:47:01.077Z,81.03
2022-10-25T14:49:29.299Z,81.19
2022-10-25T14:52:01.861Z,82.20
2022-10-25T14:54:35.581Z,82.18
2022-10-25T14:57:06.214Z,82.96
2022-10-25T14:59:42.801Z,82.82
2022-10-25T15:02:18.627Z,84.20
2022-10-25T15:04:49.967Z,84.21
2022-10-25T15:07:23.468Z,83.90
2022-10-25T15:09:53.381Z,84.73
2022-10-25T15:12:24.608Z,85.42
2022-10-25T15:14:52.965Z,87.14
2022-10-25T15:17:27.532Z,87.16
2022-10-25T15:20:07.858Z,89.31
2022-10-25T15:22:46.329Z,88.98
2022-10-25T15:25:20.093Z,89.75
2022-10-25T15:27:49.276Z,90.84
2022-10-25T15:30:37.717Z,91.34
2022-10-25T15:33:10.201Z,92.65
2022-10-25T15:35:46.413Z,93.73
2022-10-25T15:38:19.097Z,95.32
2022-10-25T15:40:47.738Z,96.31
2022-10-25T15:43:16.266Z,96.45
2022-10-25T15:45:44.600Z,96.51
2022-10-25T15:48:16.288Z,97.22
2022-10-25T15:50:48.351Z,99.12
2022-10-25T15:53:16.938Z,100.00
2022-10-25T15:55:46.597Z,100.00
2022-10-25T15:58:14.924Z,100.00
2022-10-25T16:00:44.225Z,100.00
2022-10-25T16:03:19.111Z,100.00
2022-10-25T16:05:47.397Z,100.00
2022-10-25T16:08:18.584Z,100.00
2022-10-25T16:10:48.059Z,100.00
2022-10-25T16:13:21.454Z,100.00
2022-10-25T16:15:49.480Z,100.00
2022-10-25T16:18:17.533Z,100.00
2022-10-25T16:20:48.742Z,100.00
2022-10-25T16:23:17.327Z,100.00
2022-10-25T16:25:45.955Z,100.00
2022-10-25T16:28:19.735Z,100.00
2022-10-25T16:30:50.730Z,100.00
2022-10-25T16:33:18.827Z,100.00
2022-10-25T16:35:49.131Z,100.00
2022-10-25T16:38:17.093Z,100.00
2022-10-25T16:40:47.972Z,100.00
2022-10-25T16:43:20.108Z,100.00
2022-10-25T16:45:48.026Z,100.00
2022-10-25T16:48:18.389Z,100.00
2022-10-25T16:50:46.622Z,100.00
2022-10-25T16:53:15.897Z,100.00
2022-10-25T16:55:43.949Z,100.00
2022-10-25T16:58:12.170Z,100.00
2022-10-25T17:00:41.668Z,100.00
2022-10-25T17:03:10.091Z,100.00
2022-10-25T17:05:40.570Z,100.00
2022-10-25T17:08:08.637Z,100.00
2022-10-25T17:10:42.416Z,100.00
2022-10-25T17:13:16.312Z,100.00
2022-10-25T17:15:48.130Z,100.00
2022-10-25T17:18:20.928Z,100.00
2022-10-25T17:20:51.571Z,100.00
2022-10-25T17:23:22.259Z,100.00
2022-10-25T17:25:58.238Z,100.00
2022-10-25T17:28:28.886Z,100.00
2022-10-25T17:31:00.941Z,100.00
2022-10-25T17:33:29.064Z,100.00
2022-10-25T17:35:57.117Z,100.00
2022-10-25T17:38:25.268Z,100.00
2022-10-25T17:40:53.222Z,100.00
2022-10-25T17:43:21.158Z,100.00
2022-10-25T17:45:49.329Z,100.00
2022-10-25T17:48:18.678Z,100.00
2022-10-25T17:50:46.733Z,100.00
2022-10-25T17:53:14.730Z,100.00
2022-10-25T17:55:42.781Z,100.00
2022-10-25T17:58:11.129Z,100.00
2022-10-25T18:00:39.125Z,100.00
2022-10-25T18:03:09.803Z,100.00
2022-10-25T18:05:40.490Z,100.00
2022-10-25T18:08:08.797Z,100.00
2022-10-25T18:10:36.969Z,100.00
2022-10-25T18:13:05.145Z,100.00
2022-10-25T18:15:35.099Z,100.00
2022-10-25T18:18:03.216Z,100.00
2022-10-25T18:20:31.124Z,100.00
2022-10-25T18:23:00.733Z,100.00
2022-10-25T18:25:30.992Z,100.00
2022-10-25T18:27:59.286Z,100.00
2022-10-25T18:30:27.697Z,100.00
2022-10-25T18:32:56.309Z,100.00
2022-10-25T18:35:24.680Z,100.00
2022-10-25T18:37:53.751Z,100.00
2022-10-25T18:40:23.399Z,100.00
2022-10-25T18:42:51.666Z,100.00
2022-10-25T18:45:20.244Z,100.00
2022-10-25T18:47:53.407Z,100.00
2022-10-25T18:50:21.685Z,100.00
2022-10-25T18:52:49.732Z,100.00
2022-10-25T18:57:48.830Z,100.00
2022-10-25T19:00:23.703Z,100.00
2022-10-25T19:02:53.786Z,100.00
2022-10-25T19:05:22.607Z,100.00
2022-10-25T19:07:50.732Z,100.00
2022-10-25T19:10:19.281Z,100.00
2022-10-25T19:12:48.560Z,100.00
2022-10-25T19:15:16.691Z,100.00
2022-10-25T19:17:44.957Z,100.00
2022-10-25T19:22:44.459Z,100.00
2022-10-25T19:25:12.945Z,100.00
2022-10-25T19:27:40.933Z,100.00
2022-10-25T19:30:10.177Z,100.00
2022-10-25T19:32:40.220Z,100.00
2022-10-25T19:35:10.916Z,100.00
2022-10-25T19:37:39.870Z,100.00
2022-10-25T19:40:11.562Z,100.00
2022-10-25T19:42:39.734Z,100.00
2022-10-25T19:45:08.787Z,100.00
2022-10-25T19:47:40.343Z,100.00
2022-10-25T19:50:09.429Z,100.00
2022-10-25T19:52:37.778Z,100.00
2022-10-25T19:55:07.546Z,100.00
2022-10-25T19:57:37.044Z,100.00
2022-10-25T20:00:09.871Z,100.00
2022-10-25T20:02:43.006Z,100.00
2022-10-25T20:07:41.464Z,100.00
2022-10-25T20:10:10.087Z,100.00
2022-10-25T20:12:42.829Z,100.00
2022-10-25T20:15:16.234Z,100.00
2022-10-25T20:17:44.654Z,100.00
2022-10-25T20:20:13.040Z,100.00
2022-10-25T20:22:41.008Z,100.00
2022-10-25T20:25:09.072Z,100.00
2022-10-25T20:27:36.959Z,100.00
2022-10-25T20:30:07.476Z,100.00
2022-10-25T20:32:35.459Z,100.00
2022-10-25T20:37:37.073Z,100.00
2022-10-25T20:40:08.764Z,100.00
2022-10-25T20:42:36.795Z,100.00
2022-10-25T20:45:09.313Z,100.00
2022-10-25T20:47:37.363Z,100.00
2022-10-25T20:50:06.383Z,100.00
2022-10-25T20:52:34.722Z,100.00
2022-10-25T20:55:02.856Z,100.00
2022-10-25T20:57:33.556Z,100.00
2022-10-25T21:00:08.831Z,100.00
2022-10-25T21:02:37.244Z,100.00
2022-10-25T21:05:06.348Z,100.00
2022-10-25T21:07:34.243Z,100.00
2022-10-25T21:10:05.052Z,100.00
2022-10-25T21:12:32.993Z,100.00
2022-10-25T21:15:01.443Z,100.00
2022-10-25T21:17:30.685Z,100.00
2022-10-25T21:20:01.599Z,100.00
2022-10-25T21:22:29.743Z,100.00
2022-10-25T21:25:00.632Z,100.00
2022-10-25T21:27:30.708Z,100.00
2022-10-25T21:29:58.632Z,100.00
2022-10-25T21:32:30.346Z,100.00
2022-10-25T21:34:58.371Z,100.00
2022-10-25T21:37:26.261Z,100.00
2022-10-25T21:39:54.393Z,100.00
2022-10-25T21:42:22.290Z,100.00
2022-10-25T21:44:50.242Z,100.00
2022-10-25T21:47:18.231Z,100.00
2022-10-25T21:49:47.621Z,100.00
2022-10-25T21:52:15.628Z,100.00
2022-10-25T21:54:43.547Z,100.00
2022-10-25T21:57:11.494Z,100.00
2022-10-25T21:59:39.368Z,100.00
2022-10-25T22:02:07.600Z,100.00
2022-10-25T22:04:35.595Z,100.00
2022-10-25T22:07:05.280Z,100.00
2022-10-25T22:09:33.422Z,100.00
2022-10-25T22:12:01.868Z,100.00
2022-10-25T22:14:29.799Z,100.00
2022-10-25T22:16:57.844Z,100.00
2022-10-25T22:19:25.839Z,100.00
2022-10-25T22:21:56.161Z,100.00
2022-10-25T22:24:25.463Z,100.00
2022-10-25T22:26:55.884Z,100.00
2022-10-25T22:29:26.289Z,100.00
2022-10-25T22:31:56.682Z,100.00
2022-10-25T22:34:24.888Z,100.00
2022-10-25T22:36:55.093Z,100.00
2022-10-25T22:39:23.009Z,100.00
2022-10-25T22:41:53.778Z,100.00
2022-10-25T22:44:23.856Z,100.00
2022-10-25T22:46:51.939Z,100.00
2022-10-25T22:49:19.845Z,100.00
2022-10-25T22:51:50.868Z,100.00
2022-10-25T22:54:21.763Z,100.00
2022-10-25T22:56:54.132Z,100.00
2022-10-25T22:59:22.088Z,100.00
2022-10-25T23:01:50.374Z,100.00
2022-10-25T23:04:18.372Z,100.00
2022-10-25T23:06:46.420Z,100.00
2022-10-25T23:09:16.762Z,100.00
2022-10-25T23:11:46.053Z,100.00
2022-10-25T23:14:17.489Z,100.00
2022-10-25T23:16:46.032Z,100.00
2022-10-25T23:19:14.118Z,100.00
2022-10-25T23:21:44.541Z,100.00
2022-10-25T23:24:14.799Z,100.00
2022-10-25T23:26:43.688Z,100.00
2022-10-25T23:29:15.984Z,100.00
2022-10-25T23:31:44.079Z,100.00
2022-10-25T23:34:12.444Z,100.00
2022-10-25T23:36:40.625Z,100.00
2022-10-25T23:39:09.172Z,100.00
2022-10-25T23:41:37.819Z,100.00
2022-10-25T23:44:05.938Z,100.00
2022-10-25T23:46:35.381Z,100.00
2022-10-25T23:49:03.272Z,100.00
2022-10-25T23:51:31.294Z,100.00
2022-10-25T23:53:59.218Z,100.00
2022-10-25T23:56:29.111Z,100.00
2022-10-25T23:58:57.192Z,100.00
